sensor_id;sensor_type;location;lat;lon;timestamp;pressure;altitude;pressure_sealevel;temperature;humidity
19457;BME280;9867;48.094;11.478;2023-05-11T00:02:02;94917.50;;;9.88;100.00
19457;BME280;9867;48.094;11.478;2023-05-11T00:04:31;94951.53;;;9.69;100.00
19457;BME280;9867;48.094;11.478;2023-05-11T00:06:59;94956.19;;;9.26;100.00
19457;BME280;9867;48.094;11.478;2023-05-11T00:09:27;94942.91;;;9.02;100.00
19457;BME280;9867;48.094;11.478;2023-05-11T00:11:55;94933.16;;;8.78;100.00
19457;BME280;9867;48.094;11.478;2023-05-11T00:14:24;94933.16;;;8.71;100.00
19457;BME280;9867;48.094;11.478;2023-05-11T00:16:52;94928.59;;;8.67;100.00
19457;BME280;9867;48.094;11.478;2023-05-11T00:19:20;94920.75;;;8.68;100.00
19457;BME280;9867;48.094;11.478;2023-05-11T00:21:48;94923.72;;;8.72;100.00
19457;BME280;9867;48.094;11.478;2023-05-11T00:24:16;94933.16;;;8.71;100.00
19457;BME280;9867;48.094;11.478;2023-05-11T00:26:43;94926.47;;;8.70;100.00
19457;BME280;9867;48.094;11.478;2023-05-11T00:29:12;94925.47;;;8.71;100.00
19457;BME280;9867;48.094;11.478;2023-05-11T00:31:41;94910.16;;;8.78;100.00
19457;BME280;9867;48.094;11.478;2023-05-11T00:34:13;94913.69;;;8.77;100.00
19457;BME280;9867;48.094;11.478;2023-05-11T00:36:41;94906.41;;;8.74;100.00
19457;BME280;9867;48.094;11.478;2023-05-11T00:39:09;94909.13;;;8.66;100.00
19457;BME280;9867;48.094;11.478;2023-05-11T00:41:38;94908.75;;;8.69;100.00
19457;BME280;9867;48.094;11.478;2023-05-11T00:44:05;94908.38;;;8.72;100.00
19457;BME280;9867;48.094;11.478;2023-05-11T00:46:33;94908.19;;;8.73;100.00
19457;BME280;9867;48.094;11.478;2023-05-11T00:49:03;94918.97;;;8.69;100.00
19457;BME280;9867;48.094;11.478;2023-05-11T00:51:31;94911.13;;;8.70;100.00
19457;BME280;9867;48.094;11.478;2023-05-11T00:53:59;94906.56;;;8.66;100.00
19457;BME280;9867;48.094;11.478;2023-05-11T00:56:28;94901.41;;;8.59;100.00
19457;BME280;9867;48.094;11.478;2023-05-11T00:58:56;94898.44;;;8.55;100.00
19457;BME280;9867;48.094;11.478;2023-05-11T01:01:24;94905.03;;;8.71;100.00
19457;BME280;9867;48.094;11.478;2023-05-11T01:03:53;94900.09;;;8.70;100.00
19457;BME280;9867;48.094;11.478;2023-05-11T01:06:27;94894.19;;;8.69;100.00
19457;BME280;9867;48.094;11.478;2023-05-11T01:09:02;94897.31;;;8.65;100.00
19457;BME280;9867;48.094;11.478;2023-05-11T01:11:36;94902.44;;;8.65;100.00
19457;BME280;9867;48.094;11.478;2023-05-11T01:14:12;94894.34;;;8.61;100.00
19457;BME280;9867;48.094;11.478;2023-05-11T01:16:45;94887.88;;;8.65;100.00
19457;BME280;9867;48.094;11.478;2023-05-11T01:19:23;94897.53;;;8.70;100.00
19457;BME280;9867;48.094;11.478;2023-05-11T01:21:59;94884.72;;;8.63;100.00
19457;BME280;9867;48.094;11.478;2023-05-11T01:24:36;94889.69;;;8.71;100.00
19457;BME280;9867;48.094;11.478;2023-05-11T01:27:39;94893.38;;;8.62;100.00
19457;BME280;9867;48.094;11.478;2023-05-11T01:30:25;94894.53;;;8.60;100.00
19457;BME280;9867;48.094;11.478;2023-05-11T01:32:54;94893.97;;;8.64;100.00
19457;BME280;9867;48.094;11.478;2023-05-11T01:35:25;94892.44;;;8.76;100.00
19457;BME280;9867;48.094;11.478;2023-05-11T01:37:57;94889.69;;;8.71;100.00
19457;BME280;9867;48.094;11.478;2023-05-11T01:40:27;94890.84;;;8.69;100.00
19457;BME280;9867;48.094;11.478;2023-05-11T01:42:59;94897.09;;;8.60;100.00
19457;BME280;9867;48.094;11.478;2023-05-11T01:45:32;94892.38;;;8.63;100.00
19457;BME280;9867;48.094;11.478;2023-05-11T01:48:03;94894.16;;;8.63;100.00
19457;BME280;9867;48.094;11.478;2023-05-11T01:50:33;94897.09;;;8.60;100.00
19457;BME280;9867;48.094;11.478;2023-05-11T01:53:03;94890.59;;;8.57;100.00
19457;BME280;9867;48.094;11.478;2023-05-11T01:55:33;94886.63;;;8.54;100.00
19457;BME280;9867;48.094;11.478;2023-05-11T01:58:03;94890.41;;;8.59;100.00
19457;BME280;9867;48.094;11.478;2023-05-11T02:00:33;94889.19;;;8.48;100.00
19457;BME280;9867;48.094;11.478;2023-05-11T02:03:04;94883.28;;;8.54;100.00
19457;BME280;9867;48.094;11.478;2023-05-11T02:05:33;94887.22;;;8.50;100.00
19457;BME280;9867;48.094;11.478;2023-05-11T02:08:03;94885.47;;;8.57;100.00
19457;BME280;9867;48.094;11.478;2023-05-11T02:10:33;94882.16;;;8.63;100.00
19457;BME280;9867;48.094;11.478;2023-05-11T02:13:03;94890.22;;;8.60;100.00
19457;BME280;9867;48.094;11.478;2023-05-11T02:15:35;94894.91;;;8.57;100.00
19457;BME280;9867;48.094;11.478;2023-05-11T02:18:05;94894.66;;;8.45;100.00
19457;BME280;9867;48.094;11.478;2023-05-11T02:20:34;94883.47;;;8.46;100.00
19457;BME280;9867;48.094;11.478;2023-05-11T02:23:03;94877.53;;;8.39;100.00
19457;BME280;9867;48.094;11.478;2023-05-11T02:25:32;94880.72;;;8.47;100.00
19457;BME280;9867;48.094;11.478;2023-05-11T02:28:00;94884.63;;;8.43;100.00
19457;BME280;9867;48.094;11.478;2023-05-11T02:30:30;94873.66;;;8.49;100.00
19457;BME280;9867;48.094;11.478;2023-05-11T02:33:04;94885.22;;;8.45;100.00
19457;BME280;9867;48.094;11.478;2023-05-11T02:35:37;94891.50;;;8.43;100.00
19457;BME280;9867;48.094;11.478;2023-05-11T02:38:09;94872.19;;;8.34;100.00
19457;BME280;9867;48.094;11.478;2023-05-11T02:40:41;94888.31;;;8.34;100.00
19457;BME280;9867;48.094;11.478;2023-05-11T02:43:14;94879.72;;;8.42;100.00
19457;BME280;9867;48.094;11.478;2023-05-11T02:45:52;94879.28;;;8.38;100.00
19457;BME280;9867;48.094;11.478;2023-05-11T02:48:31;94878.97;;;8.48;100.00
19457;BME280;9867;48.094;11.478;2023-05-11T02:51:05;94888.34;;;8.41;100.00
19457;BME280;9867;48.094;11.478;2023-05-11T02:53:40;94881.09;;;8.44;100.00
19457;BME280;9867;48.094;11.478;2023-05-11T02:56:09;94885.31;;;8.31;100.00
19457;BME280;9867;48.094;11.478;2023-05-11T02:58:37;94876.72;;;8.38;100.00
19457;BME280;9867;48.094;11.478;2023-05-11T03:01:19;94887.16;;;8.37;100.00
19457;BME280;9867;48.094;11.478;2023-05-11T03:03:48;94878.28;;;8.33;100.00
19457;BME280;9867;48.094;11.478;2023-05-11T03:06:17;94880.97;;;8.31;100.00
19457;BME280;9867;48.094;11.478;2023-05-11T03:08:45;94872.97;;;8.34;100.00
19457;BME280;9867;48.094;11.478;2023-05-11T03:11:15;94882.94;;;8.29;100.00
19457;BME280;9867;48.094;11.478;2023-05-11T03:13:45;94872.09;;;8.20;100.00
19457;BME280;9867;48.094;11.478;2023-05-11T03:16:16;94865.59;;;8.18;100.00
19457;BME280;9867;48.094;11.478;2023-05-11T03:18:49;94873.13;;;8.26;100.00
19457;BME280;9867;48.094;11.478;2023-05-11T03:21:18;94873.50;;;8.23;100.00
19457;BME280;9867;48.094;11.478;2023-05-11T03:23:47;94873.25;;;8.18;100.00
19457;BME280;9867;48.094;11.478;2023-05-11T03:26:16;94875.41;;;8.14;100.00
19457;BME280;9867;48.094;11.478;2023-05-11T03:28:46;94862.63;;;8.14;100.00
19457;BME280;9867;48.094;11.478;2023-05-11T03:31:14;94866.56;;;8.17;100.00
19457;BME280;9867;48.094;11.478;2023-05-11T03:33:42;94870.28;;;8.14;100.00
19457;BME280;9867;48.094;11.478;2023-05-11T03:36:12;94856.53;;;8.15;100.00
19457;BME280;9867;48.094;11.478;2023-05-11T03:38:42;94861.63;;;8.15;100.00
19457;BME280;9867;48.094;11.478;2023-05-11T03:41:16;94856.66;;;8.07;100.00
19457;BME280;9867;48.094;11.478;2023-05-11T03:43:50;94852.63;;;8.19;100.00
19457;BME280;9867;48.094;11.478;2023-05-11T03:46:20;94853.78;;;8.17;100.00
19457;BME280;9867;48.094;11.478;2023-05-11T03:48:49;94857.50;;;8.14;100.00
19457;BME280;9867;48.094;11.478;2023-05-11T03:51:23;94862.28;;;8.24;100.00
19457;BME280;9867;48.094;11.478;2023-05-11T03:53:51;94861.09;;;8.20;100.00
19457;BME280;9867;48.094;11.478;2023-05-11T03:56:20;94853.22;;;8.21;100.00
19457;BME280;9867;48.094;11.478;2023-05-11T03:58:51;94858.72;;;8.18;100.00
19457;BME280;9867;48.094;11.478;2023-05-11T04:01:20;94847.75;;;8.25;100.00
19457;BME280;9867;48.094;11.478;2023-05-11T04:03:49;94850.44;;;8.16;100.00
19457;BME280;9867;48.094;11.478;2023-05-11T04:06:18;94857.50;;;8.14;100.00
19457;BME280;9867;48.094;11.478;2023-05-11T04:08:54;94848.88;;;8.15;100.00
19457;BME280;9867;48.094;11.478;2023-05-11T04:11:22;94848.22;;;8.07;100.00
19457;BME280;9867;48.094;11.478;2023-05-11T04:13:50;94844.47;;;8.03;100.00
19457;BME280;9867;48.094;11.478;2023-05-11T04:16:18;94840.13;;;7.97;100.00
19457;BME280;9867;48.094;11.478;2023-05-11T04:18:46;94849.25;;;8.12;100.00
19457;BME280;9867;48.094;11.478;2023-05-11T04:21:14;94841.34;;;8.07;100.00
19457;BME280;9867;48.094;11.478;2023-05-11T04:23:42;94841.19;;;8.15;100.00
19457;BME280;9867;48.094;11.478;2023-05-11T04:26:11;94850.22;;;8.11;100.00
19457;BME280;9867;48.094;11.478;2023-05-11T04:28:39;94850.34;;;8.03;100.00
19457;BME280;9867;48.094;11.478;2023-05-11T04:31:07;94844.69;;;8.08;100.00
19457;BME280;9867;48.094;11.478;2023-05-11T04:33:36;94849.38;;;8.04;100.00
19457;BME280;9867;48.094;11.478;2023-05-11T04:36:05;94854.34;;;8.12;100.00
19457;BME280;9867;48.094;11.478;2023-05-11T04:38:33;94849.78;;;8.08;100.00
19457;BME280;9867;48.094;11.478;2023-05-11T04:41:02;94857.13;;;8.17;100.00
19457;BME280;9867;48.094;11.478;2023-05-11T04:43:31;94864.94;;;8.09;100.00
19457;BME280;9867;48.094;11.478;2023-05-11T04:46:00;94847.53;;;7.92;100.00
19457;BME280;9867;48.094;11.478;2023-05-11T04:48:28;94852.28;;;7.95;100.00
19457;BME280;9867;48.094;11.478;2023-05-11T04:50:57;94850.53;;;7.95;100.00
19457;BME280;9867;48.094;11.478;2023-05-11T04:53:29;94855.69;;;8.02;100.00
19457;BME280;9867;48.094;11.478;2023-05-11T04:55:57;94861.19;;;8.05;100.00
19457;BME280;9867;48.094;11.478;2023-05-11T04:58:25;94862.75;;;8.06;100.00
19457;BME280;9867;48.094;11.478;2023-05-11T05:00:55;94854.47;;;7.98;100.00
19457;BME280;9867;48.094;11.478;2023-05-11T05:03:23;94854.72;;;8.09;100.00
19457;BME280;9867;48.094;11.478;2023-05-11T05:05:51;94865.78;;;8.16;100.00
19457;BME280;9867;48.094;11.478;2023-05-11T05:08:19;94871.22;;;8.07;100.00
19457;BME280;9867;48.094;11.478;2023-05-11T05:10:47;94871.44;;;8.12;100.00
19457;BME280;9867;48.094;11.478;2023-05-11T05:13:16;94875.34;;;8.08;100.00
19457;BME280;9867;48.094;11.478;2023-05-11T05:15:45;94869.19;;;7.96;100.00
19457;BME280;9867;48.094;11.478;2023-05-11T05:18:15;94869.97;;;7.96;100.00
19457;BME280;9867;48.094;11.478;2023-05-11T05:20:44;94872.53;;;7.96;100.00
19457;BME280;9867;48.094;11.478;2023-05-11T05:23:14;94876.13;;;8.08;100.00
19457;BME280;9867;48.094;11.478;2023-05-11T05:25:43;94875.44;;;7.93;100.00
19457;BME280;9867;48.094;11.478;2023-05-11T05:28:11;94880.38;;;7.95;100.00
19457;BME280;9867;48.094;11.478;2023-05-11T05:30:39;94874.25;;;7.89;100.00
19457;BME280;9867;48.094;11.478;2023-05-11T05:33:07;94882.47;;;7.84;100.00
19457;BME280;9867;48.094;11.478;2023-05-11T05:35:36;94883.66;;;7.88;100.00
19457;BME280;9867;48.094;11.478;2023-05-11T05:38:04;94877.72;;;8.09;100.00
19457;BME280;9867;48.094;11.478;2023-05-11T05:40:32;94875.94;;;8.10;100.00
19457;BME280;9867;48.094;11.478;2023-05-11T05:43:03;94872.69;;;8.23;100.00
19457;BME280;9867;48.094;11.478;2023-05-11T05:45:31;94879.16;;;8.18;100.00
19457;BME280;9867;48.094;11.478;2023-05-11T05:48:00;94887.38;;;8.14;100.00
19457;BME280;9867;48.094;11.478;2023-05-11T05:50:27;94880.69;;;8.13;100.00
19457;BME280;9867;48.094;11.478;2023-05-11T05:52:57;94876.94;;;8.09;100.00
19457;BME280;9867;48.094;11.478;2023-05-11T05:55:27;94891.88;;;8.12;100.00
19457;BME280;9867;48.094;11.478;2023-05-11T05:57:56;94884.03;;;8.13;100.00
19457;BME280;9867;48.094;11.478;2023-05-11T06:00:24;94886.59;;;8.13;100.00
19457;BME280;9867;48.094;11.478;2023-05-11T06:03:00;94885.19;;;8.11;100.00
19457;BME280;9867;48.094;11.478;2023-05-11T06:05:28;94889.75;;;8.15;100.00
19457;BME280;9867;48.094;11.478;2023-05-11T06:07:58;94877.44;;;8.26;100.00
19457;BME280;9867;48.094;11.478;2023-05-11T06:10:37;94887.06;;;8.30;100.00
19457;BME280;9867;48.094;11.478;2023-05-11T06:13:07;94887.66;;;8.26;100.00
19457;BME280;9867;48.094;11.478;2023-05-11T06:15:37;94893.75;;;8.25;100.00
19457;BME280;9867;48.094;11.478;2023-05-11T06:18:16;94887.63;;;8.19;100.00
19457;BME280;9867;48.094;11.478;2023-05-11T06:20:44;94897.66;;;8.27;100.00
19457;BME280;9867;48.094;11.478;2023-05-11T06:23:15;94896.84;;;8.20;100.00
19457;BME280;9867;48.094;11.478;2023-05-11T06:25:46;94888.59;;;8.18;100.00
19457;BME280;9867;48.094;11.478;2023-05-11T06:28:14;94892.94;;;8.24;100.00
19457;BME280;9867;48.094;11.478;2023-05-11T06:30:42;94897.88;;;8.26;100.00
19457;BME280;9867;48.094;11.478;2023-05-11T06:33:10;94897.28;;;8.24;100.00
19457;BME280;9867;48.094;11.478;2023-05-11T06:35:39;94903.19;;;8.31;100.00
19457;BME280;9867;48.094;11.478;2023-05-11T06:38:10;94898.09;;;8.31;100.00
19457;BME280;9867;48.094;11.478;2023-05-11T06:40:39;94897.19;;;8.38;100.00
19457;BME280;9867;48.094;11.478;2023-05-11T06:43:07;94901.22;;;8.26;100.00
19457;BME280;9867;48.094;11.478;2023-05-11T06:45:44;94891.50;;;8.43;100.00
19457;BME280;9867;48.094;11.478;2023-05-11T06:48:13;94894.50;;;8.53;100.00
19457;BME280;9867;48.094;11.478;2023-05-11T06:50:41;94893.50;;;8.54;100.00
19457;BME280;9867;48.094;11.478;2023-05-11T06:53:11;94895.47;;;8.45;100.00
19457;BME280;9867;48.094;11.478;2023-05-11T06:55:40;94897.22;;;8.51;100.00
19457;BME280;9867;48.094;11.478;2023-05-11T06:58:08;94894.28;;;8.48;100.00
19457;BME280;9867;48.094;11.478;2023-05-11T07:00:36;94898.25;;;8.57;100.00
19457;BME280;9867;48.094;11.478;2023-05-11T07:03:05;94908.84;;;8.54;100.00
19457;BME280;9867;48.094;11.478;2023-05-11T07:05:34;94903.06;;;8.80;100.00
19457;BME280;9867;48.094;11.478;2023-05-11T07:08:03;94907.34;;;8.66;100.00
19457;BME280;9867;48.094;11.478;2023-05-11T07:10:32;94896.31;;;8.59;100.00
19457;BME280;9867;48.094;11.478;2023-05-11T07:13:01;94898.25;;;8.57;100.00
19457;BME280;9867;48.094;11.478;2023-05-11T07:15:30;94901.19;;;8.47;100.00
19457;BME280;9867;48.094;11.478;2023-05-11T07:17:58;94895.28;;;8.47;100.00
19457;BME280;9867;48.094;11.478;2023-05-11T07:20:27;94899.22;;;8.56;100.00
19457;BME280;9867;48.094;11.478;2023-05-11T07:22:55;94904.13;;;8.51;100.00
19457;BME280;9867;48.094;11.478;2023-05-11T07:25:24;94897.50;;;8.63;100.00
19457;BME280;9867;48.094;11.478;2023-05-11T07:27:52;94894.53;;;8.60;100.00
19457;BME280;9867;48.094;11.478;2023-05-11T07:30:22;94902.63;;;8.63;100.00
19457;BME280;9867;48.094;11.478;2023-05-11T07:32:50;94892.38;;;8.63;100.00
19457;BME280;9867;48.094;11.478;2023-05-11T07:35:18;94900.31;;;8.81;100.00
19457;BME280;9867;48.094;11.478;2023-05-11T07:37:49;94906.31;;;8.54;100.00
19457;BME280;9867;48.094;11.478;2023-05-11T07:40:17;94901.31;;;8.74;100.00
19457;BME280;9867;48.094;11.478;2023-05-11T07:42:45;94909.53;;;8.69;100.00
19457;BME280;9867;48.094;11.478;2023-05-11T07:45:13;94902.00;;;8.61;100.00
19457;BME280;9867;48.094;11.478;2023-05-11T07:47:44;94905.84;;;8.85;100.00
19457;BME280;9867;48.094;11.478;2023-05-11T07:50:12;94914.28;;;8.72;100.00
19457;BME280;9867;48.094;11.478;2023-05-11T07:52:40;94918.97;;;8.75;100.00
19457;BME280;9867;48.094;11.478;2023-05-11T07:55:08;94916.84;;;8.72;100.00
19457;BME280;9867;48.094;11.478;2023-05-11T07:57:36;94910.75;;;8.73;100.00
19457;BME280;9867;48.094;11.478;2023-05-11T08:00:06;94917.03;;;8.71;100.00
19457;BME280;9867;48.094;11.478;2023-05-11T08:02:39;94896.94;;;8.74;100.00
19457;BME280;9867;48.094;11.478;2023-05-11T08:05:09;94913.03;;;9.09;100.00
19457;BME280;9867;48.094;11.478;2023-05-11T08:07:38;94915.38;;;9.11;100.00
19457;BME280;9867;48.094;11.478;2023-05-11T08:10:08;94913.03;;;9.16;100.00
19457;BME280;9867;48.094;11.478;2023-05-11T08:12:36;94909.53;;;9.37;100.00
19457;BME280;9867;48.094;11.478;2023-05-11T08:15:05;94910.94;;;9.39;100.00
19457;BME280;9867;48.094;11.478;2023-05-11T08:17:33;94919.78;;;9.37;100.00
19457;BME280;9867;48.094;11.478;2023-05-11T08:20:01;94916.84;;;9.53;100.00
19457;BME280;9867;48.094;11.478;2023-05-11T08:22:31;94924.16;;;9.43;100.00
19457;BME280;9867;48.094;11.478;2023-05-11T08:24:59;94915.22;;;9.19;100.00
19457;BME280;9867;48.094;11.478;2023-05-11T08:27:29;94914.56;;;9.04;100.00
19457;BME280;9867;48.094;11.478;2023-05-11T08:29:58;94916.00;;;9.13;100.00
19457;BME280;9867;48.094;11.478;2023-05-11T08:32:26;94913.03;;;9.09;100.00
19457;BME280;9867;48.094;11.478;2023-05-11T08:34:55;94911.66;;;9.13;100.00
19457;BME280;9867;48.094;11.478;2023-05-11T08:37:23;94913.25;;;9.21;100.00
19457;BME280;9867;48.094;11.478;2023-05-11T08:39:52;94907.78;;;9.37;100.00
19457;BME280;9867;48.094;11.478;2023-05-11T08:42:23;94924.34;;;9.41;100.00
19457;BME280;9867;48.094;11.478;2023-05-11T08:44:54;94912.50;;;9.40;100.00
19457;BME280;9867;48.094;11.478;2023-05-11T08:47:23;94912.50;;;9.40;100.00
19457;BME280;9867;48.094;11.478;2023-05-11T08:49:52;94923.16;;;9.57;100.00
19457;BME280;9867;48.094;11.478;2023-05-11T08:52:20;94911.16;;;9.57;100.00
19457;BME280;9867;48.094;11.478;2023-05-11T08:54:48;94915.50;;;9.57;100.00
19457;BME280;9867;48.094;11.478;2023-05-11T08:57:20;94913.53;;;9.59;100.00
19457;BME280;9867;48.094;11.478;2023-05-11T08:59:49;94919.41;;;9.53;100.00
19457;BME280;9867;48.094;11.478;2023-05-11T09:02:19;94924.16;;;9.43;100.00
19457;BME280;9867;48.094;11.478;2023-05-11T09:04:48;94920.69;;;9.09;100.00
19457;BME280;9867;48.094;11.478;2023-05-11T09:07:18;94916.41;;;9.30;100.00
19457;BME280;9867;48.094;11.478;2023-05-11T09:09:46;94909.34;;;9.32;100.00
19457;BME280;9867;48.094;11.478;2023-05-11T09:12:15;94912.25;;;9.15;100.00
19457;BME280;9867;48.094;11.478;2023-05-11T09:14:44;94910.47;;;9.22;100.00
19457;BME280;9867;48.094;11.478;2023-05-11T09:17:13;94919.41;;;9.40;100.00
19457;BME280;9867;48.094;11.478;2023-05-11T09:19:58;94920.56;;;9.31;100.00
19457;BME280;9867;48.094;11.478;2023-05-11T09:22:27;94910.72;;;9.34;100.00
19457;BME280;9867;48.094;11.478;2023-05-11T09:25:00;94911.72;;;9.40;100.00
19457;BME280;9867;48.094;11.478;2023-05-11T09:27:29;94918.97;;;9.30;100.00
19457;BME280;9867;48.094;11.478;2023-05-11T09:30:11;94908.38;;;9.52;100.00
19457;BME280;9867;48.094;11.478;2023-05-11T09:32:47;94907.78;;;9.50;100.00
19457;BME280;9867;48.094;11.478;2023-05-11T09:35:23;94914.31;;;9.60;100.00
19457;BME280;9867;48.094;11.478;2023-05-11T09:37:59;94915.09;;;9.60;100.00
19457;BME280;9867;48.094;11.478;2023-05-11T09:40:28;94910.94;;;9.39;100.00
19457;BME280;9867;48.094;11.478;2023-05-11T09:43:01;94903.88;;;9.74;100.00
19457;BME280;9867;48.094;11.478;2023-05-11T09:45:39;94908.00;;;9.75;100.00
19457;BME280;9867;48.094;11.478;2023-05-11T09:48:22;94903.66;;;9.69;100.00
19457;BME280;9867;48.094;11.478;2023-05-11T09:50:58;94899.91;;;9.72;100.00
19457;BME280;9867;48.094;11.478;2023-05-11T09:53:40;94904.47;;;9.89;100.00
19457;BME280;9867;48.094;11.478;2023-05-11T09:56:10;94906.03;;;10.04;100.00
19457;BME280;9867;48.094;11.478;2023-05-11T09:58:47;94909.19;;;10.25;100.00
19457;BME280;9867;48.094;11.478;2023-05-11T10:01:17;94906.19;;;10.42;100.00
19457;BME280;9867;48.094;11.478;2023-05-11T10:03:47;94910.56;;;10.35;100.00
19457;BME280;9867;48.094;11.478;2023-05-11T10:06:16;94910.56;;;10.28;100.00
19457;BME280;9867;48.094;11.478;2023-05-11T10:08:46;94912.94;;;9.97;100.00
19457;BME280;9867;48.094;11.478;2023-05-11T10:11:14;94906.25;;;9.82;100.00
19457;BME280;9867;48.094;11.478;2023-05-11T10:13:43;94896.38;;;9.73;100.00
19457;BME280;9867;48.094;11.478;2023-05-11T10:16:13;94905.47;;;9.82;100.00
19457;BME280;9867;48.094;11.478;2023-05-11T10:18:44;94893.03;;;9.85;100.00
19457;BME280;9867;48.094;11.478;2023-05-11T10:21:14;94905.06;;;9.91;100.00
19457;BME280;9867;48.094;11.478;2023-05-11T10:23:42;94902.13;;;9.88;100.00
19457;BME280;9867;48.094;11.478;2023-05-11T10:26:10;94900.13;;;9.83;100.00
19457;BME280;9867;48.094;11.478;2023-05-11T10:28:39;94905.44;;;9.62;100.00
19457;BME280;9867;48.094;11.478;2023-05-11T10:31:08;94897.00;;;9.88;100.00
19457;BME280;9867;48.094;11.478;2023-05-11T10:33:37;94899.31;;;9.96;100.00
19457;BME280;9867;48.094;11.478;2023-05-11T10:36:07;94894.41;;;10.01;100.00
19457;BME280;9867;48.094;11.478;2023-05-11T10:38:35;94910.38;;;10.23;100.00
19457;BME280;9867;48.094;11.478;2023-05-11T10:41:11;94909.19;;;10.25;100.00
19457;BME280;9867;48.094;11.478;2023-05-11T10:44:08;94910.38;;;10.03;100.00
19457;BME280;9867;48.094;11.478;2023-05-11T10:46:53;94906.63;;;10.06;100.00
19457;BME280;9867;48.094;11.478;2023-05-11T10:49:42;94898.34;;;10.04;100.00
19457;BME280;9867;48.094;11.478;2023-05-11T10:52:24;94895.59;;;9.92;100.00
19457;BME280;9867;48.094;11.478;2023-05-11T10:55:08;94897.00;;;9.88;100.00
19457;BME280;9867;48.094;11.478;2023-05-11T10:57:47;94893.63;;;9.81;100.00
19457;BME280;9867;48.094;11.478;2023-05-11T11:00:43;94889.91;;;9.90;100.00
19457;BME280;9867;48.094;11.478;2023-05-11T11:03:21;94898.94;;;10.06;100.00
19457;BME280;9867;48.094;11.478;2023-05-11T11:05:49;94903.69;;;10.29;100.00
19457;BME280;9867;48.094;11.478;2023-05-11T11:08:19;94887.31;;;10.10;100.00
19457;BME280;9867;48.094;11.478;2023-05-11T11:10:47;94902.88;;;10.21;100.00
19457;BME280;9867;48.094;11.478;2023-05-11T11:13:17;94909.78;;;10.14;100.00
19457;BME280;9867;48.094;11.478;2023-05-11T11:16:12;94906.44;;;10.07;100.00
19457;BME280;9867;48.094;11.478;2023-05-11T11:18:42;94910.19;;;10.11;100.00
19457;BME280;9867;48.094;11.478;2023-05-11T11:21:10;94902.66;;;10.16;100.00
19457;BME280;9867;48.094;11.478;2023-05-11T11:23:47;94910.97;;;10.25;100.00
19457;BME280;9867;48.094;11.478;2023-05-11T11:26:38;94902.28;;;10.33;100.00
19457;BME280;9867;48.094;11.478;2023-05-11T11:29:11;94902.88;;;10.21;100.00
19457;BME280;9867;48.094;11.478;2023-05-11T11:31:40;94905.81;;;10.18;100.00
19457;BME280;9867;48.094;11.478;2023-05-11T11:34:31;94908.00;;;10.21;100.00
19457;BME280;9867;48.094;11.478;2023-05-11T11:37:03;94914.47;;;10.44;100.00
19457;BME280;9867;48.094;11.478;2023-05-11T11:39:51;94903.03;;;10.40;100.00
19457;BME280;9867;48.094;11.478;2023-05-11T11:42:36;94908.22;;;10.27;100.00
19457;BME280;9867;48.094;11.478;2023-05-11T11:45:25;94892.63;;;10.28;100.00
19457;BME280;9867;48.094;11.478;2023-05-11T11:48:11;94901.66;;;10.44;100.00
19457;BME280;9867;48.094;11.478;2023-05-11T11:50:44;94899.94;;;10.24;100.00
19457;BME280;9867;48.094;11.478;2023-05-11T11:56:38;94897.56;;;10.23;100.00
19457;BME280;9867;48.094;11.478;2023-05-11T11:59:06;94901.69;;;10.24;100.00
19457;BME280;9867;48.094;11.478;2023-05-11T12:01:41;94896.97;;;10.14;100.00
19457;BME280;9867;48.094;11.478;2023-05-11T12:04:33;94890.66;;;10.30;100.00
19457;BME280;9867;48.094;11.478;2023-05-11T12:07:07;94894.94;;;10.43;100.00
19457;BME280;9867;48.094;11.478;2023-05-11T12:09:37;94894.53;;;10.59;100.00
19457;BME280;9867;48.094;11.478;2023-05-11T12:12:08;94884.88;;;10.54;100.00
19457;BME280;9867;48.094;11.478;2023-05-11T12:14:39;94893.16;;;10.56;100.00
19457;BME280;9867;48.094;11.478;2023-05-11T12:17:15;94896.56;;;10.37;100.00
19457;BME280;9867;48.094;11.478;2023-05-11T12:19:49;94883.75;;;10.37;100.00
19457;BME280;9867;48.094;11.478;2023-05-11T12:22:21;94884.34;;;10.33;100.00
19457;BME280;9867;48.094;11.478;2023-05-11T12:24:49;94900.72;;;10.25;100.00
19457;BME280;9867;48.094;11.478;2023-05-11T12:27:18;94888.88;;;10.31;100.00
19457;BME280;9867;48.094;11.478;2023-05-11T12:29:50;94897.13;;;10.46;100.00
19457;BME280;9867;48.094;11.478;2023-05-11T12:32:24;94887.63;;;10.53;100.00
19457;BME280;9867;48.094;11.478;2023-05-11T12:34:58;94885.09;;;10.40;100.00
19457;BME280;9867;48.094;11.478;2023-05-11T12:37:26;94879.41;;;10.38;100.00
19457;BME280;9867;48.094;11.478;2023-05-11T12:39:55;94874.16;;;10.64;100.00
19457;BME280;9867;48.094;11.478;2023-05-11T12:42:25;94870.63;;;10.65;100.00
19457;BME280;9867;48.094;11.478;2023-05-11T12:44:53;94871.88;;;10.43;100.00
19457;BME280;9867;48.094;11.478;2023-05-11T12:47:21;94868.25;;;10.64;100.00
19457;BME280;9867;48.094;11.478;2023-05-11T12:49:50;94849.94;;;10.60;100.00
19457;BME280;9867;48.094;11.478;2023-05-11T12:52:18;94875.16;;;10.70;100.00
19457;BME280;9867;48.094;11.478;2023-05-11T12:54:48;94871.41;;;10.66;100.00
19457;BME280;9867;48.094;11.478;2023-05-11T12:57:22;94862.97;;;10.52;100.00
19457;BME280;9867;48.094;11.478;2023-05-11T13:00:07;94872.19;;;10.66;100.00
19457;BME280;9867;48.094;11.478;2023-05-11T13:02:43;94874.56;;;10.68;100.00
19457;BME280;9867;48.094;11.478;2023-05-11T13:05:12;94874.63;;;10.54;100.00
19457;BME280;9867;48.094;11.478;2023-05-11T13:07:41;94875.25;;;10.37;100.00
19457;BME280;9867;48.094;11.478;2023-05-11T13:10:11;94863.00;;;10.45;100.00
19457;BME280;9867;48.094;11.478;2023-05-11T13:12:49;94875.47;;;10.35;100.00
19457;BME280;9867;48.094;11.478;2023-05-11T13:15:20;94863.91;;;10.64;100.00
19457;BME280;9867;48.094;11.478;2023-05-11T13:17:55;94862.31;;;10.70;100.00
19457;BME280;9867;48.094;11.478;2023-05-11T13:20:25;94866.03;;;10.80;100.00
19457;BME280;9867;48.094;11.478;2023-05-11T13:23:02;94855.00;;;10.73;100.00